Flight Number: EUR1568 Duration: 2:45
Departure: Heraklion (Crete) (LGIR) at 08:00 Distance: 1393 Nm
Arrival: Basel-Mulhouse (LFSB) at 10:45 Equipment: A321

Weather Information
Heraklion Airport , Greece (LGIR) 35-20N 025-11E 39M Feb 19, 2018 - 02:20 AM EST / 2018.02.19 0720 UTC
Wind: from the S (180 degrees) at 7 MPH (6 KT):0
Visibility: greater than 7 mile(s):0
Sky conditions: mostly cloudy Temperature: 55 F (13 C) Dew Point: 46 F (8 C) Relative Humidity: 71% Pressure (altimeter): 29.94 in. Hg (1014 hPa)
ob: LGIR 190720Z 18006KT 9999 FEW020 BKN090 13/08 Q1014 NOSIG cycle: 7
Sunrise: 05:03 Sunset: 16:02 (UTC)

Bale-Mulhouse, France (LFSB) 47-36N 007-31E 271M Feb 19, 2018 - 02:30 AM EST / 2018.02.19 0730 UTC
Wind: from the NW (310 degrees) at 5 MPH (4 KT):0
Visibility: 1 mile(s):0
Sky conditions: overcast Weather: mist Temperature: 32 F (0 C)
Windchill: 26 F (-3 C):1 Dew Point: 30 F (-1 C) Relative Humidity: 92% Pressure (altimeter): 30.09 in. Hg (1019 hPa)
ob: LFSB 190730Z 31004KT 2500 BR FEW003 BKN004 OVC031 00/M01 Q1019 TEMPO OVC003 cycle: 7
Sunrise: 06:31 Sunset: 16:56 (UTC)

TAF:2018/02/19 06:21 TAF TAF LFSB 190500Z 1906/2006 32003KT 3000 BR BKN005 BKN030 TEMPO 1906/1908 1500 OVC002 BECMG 1908/1911 6000 NSW SCT008 BKN180 BECMG 1918/1921 BKN025 OVC100 PROB40 TEMPO 2003/2006 4000 BR BKN004

Previous Pireps for this route
Date Aircraft Flight time Fuel used Landing rate On time
2013-03-23A32103.1327288-278Charter
2016-05-15A32102.4716007-129Yes
(pireps marked green are flown by you)

Route map